Terminal Aerodrome Forecast
Issued by NWS Corpus Christi, TX

Home | Current Version | Previous Version | Text Only | Print | Product List | Glossary On
Versions: 1 2 3 4 5 6 7 8 9 10 11 12
000
FTUS44 KCRP 012300
TAFCRP
TAF
KCRP 012338Z 0200/0224 11012KT P6SM VCTS BKN035CB
      TEMPO 0200/0202 34015G25KT TSRA OVC035CB
     FM020300 11009KT P6SM SCT040 BKN100
     FM020900 VRB03KT P6SM OVC035
     FM021500 VRB05KT P6SM VCTS BKN035CB=

USA.gov is the U.S. government's official web portal to all federal, state and local government web resources and services.